sensor_id;sensor_type;location;lat;lon;timestamp;pressure;altitude;pressure_sealevel;temperature
24714;BMP280;12820;51.580;5.010;2023-02-15T00:02:35;102887.13;;;6.62
24714;BMP280;12820;51.580;5.010;2023-02-15T00:07:37;102890.31;;;6.58
24714;BMP280;12820;51.580;5.010;2023-02-15T00:12:39;102880.09;;;6.52
24714;BMP280;12820;51.580;5.010;2023-02-15T00:17:41;102876.66;;;6.49
24714;BMP280;12820;51.580;5.010;2023-02-15T00:22:43;102866.53;;;6.44
24714;BMP280;12820;51.580;5.010;2023-02-15T00:27:45;102868.81;;;6.38
24714;BMP280;12820;51.580;5.010;2023-02-15T00:32:47;102860.31;;;6.34
24714;BMP280;12820;51.580;5.010;2023-02-15T00:37:50;102846.03;;;6.30
24714;BMP280;12820;51.580;5.010;2023-02-15T00:42:54;102847.50;;;6.25
24714;BMP280;12820;51.580;5.010;2023-02-15T00:47:56;102848.22;;;6.21
24714;BMP280;12820;51.580;5.010;2023-02-15T00:52:58;102844.72;;;6.16
24714;BMP280;12820;51.580;5.010;2023-02-15T00:58:01;102843.69;;;6.11
24714;BMP280;12820;51.580;5.010;2023-02-15T01:03:03;102841.84;;;6.07
24714;BMP280;12820;51.580;5.010;2023-02-15T01:08:05;102846.75;;;6.04
24714;BMP280;12820;51.580;5.010;2023-02-15T01:13:07;102837.47;;;6.01
24714;BMP280;12820;51.580;5.010;2023-02-15T01:18:10;102832.31;;;5.96
24714;BMP280;12820;51.580;5.010;2023-02-15T01:23:13;102818.75;;;5.90
24714;BMP280;12820;51.580;5.010;2023-02-15T01:28:15;102813.69;;;5.87
24714;BMP280;12820;51.580;5.010;2023-02-15T01:33:17;102816.91;;;5.85
24714;BMP280;12820;51.580;5.010;2023-02-15T01:38:20;102809.25;;;5.80
24714;BMP280;12820;51.580;5.010;2023-02-15T01:43:39;102810.75;;;5.75
24714;BMP280;12820;51.580;5.010;2023-02-15T01:48:46;102805.66;;;5.72
24714;BMP280;12820;51.580;5.010;2023-02-15T01:54:03;102798.84;;;5.68
24714;BMP280;12820;51.580;5.010;2023-02-15T01:59:15;102787.91;;;5.65
24714;BMP280;12820;51.580;5.010;2023-02-15T02:04:25;102794.41;;;5.62
24714;BMP280;12820;51.580;5.010;2023-02-15T02:09:32;102786.81;;;5.59
24714;BMP280;12820;51.580;5.010;2023-02-15T02:14:34;102782.53;;;5.55
24714;BMP280;12820;51.580;5.010;2023-02-15T02:36:15;102772.88;;;5.42
24714;BMP280;12820;51.580;5.010;2023-02-15T02:41:30;102756.13;;;5.38
24714;BMP280;12820;51.580;5.010;2023-02-15T02:46:44;102752.69;;;5.36
24714;BMP280;12820;51.580;5.010;2023-02-15T02:51:58;102752.59;;;5.33
24714;BMP280;12820;51.580;5.010;2023-02-15T02:57:04;102737.41;;;5.28
24714;BMP280;12820;51.580;5.010;2023-02-15T03:02:21;102734.03;;;5.26
24714;BMP280;12820;51.580;5.010;2023-02-15T03:07:24;102726.41;;;5.23
24714;BMP280;12820;51.580;5.010;2023-02-15T03:12:35;102726.38;;;5.21
24714;BMP280;12820;51.580;5.010;2023-02-15T03:17:45;102727.03;;;5.17
24714;BMP280;12820;51.580;5.010;2023-02-15T03:22:52;102714.56;;;5.16
24714;BMP280;12820;51.580;5.010;2023-02-15T03:27:59;102714.38;;;5.12
24714;BMP280;12820;51.580;5.010;2023-02-15T03:33:04;102721.78;;;5.10
24714;BMP280;12820;51.580;5.010;2023-02-15T03:38:08;102715.97;;;5.10
24714;BMP280;12820;51.580;5.010;2023-02-15T03:43:23;102720.00;;;5.06
24714;BMP280;12820;51.580;5.010;2023-02-15T03:48:37;102721.56;;;5.04
24714;BMP280;12820;51.580;5.010;2023-02-15T03:53:42;102716.47;;;5.01
24714;BMP280;12820;51.580;5.010;2023-02-15T03:58:45;102708.09;;;4.99
24714;BMP280;12820;51.580;5.010;2023-02-15T04:04:12;102712.97;;;4.96
24714;BMP280;12820;51.580;5.010;2023-02-15T04:09:18;102707.06;;;4.95
24714;BMP280;12820;51.580;5.010;2023-02-15T04:14:38;102689.53;;;4.92
24714;BMP280;12820;51.580;5.010;2023-02-15T04:19:59;102694.38;;;4.89
24714;BMP280;12820;51.580;5.010;2023-02-15T04:25:20;102692.56;;;4.85
24714;BMP280;12820;51.580;5.010;2023-02-15T04:30:24;102689.19;;;4.83
24714;BMP280;12820;51.580;5.010;2023-02-15T04:35:27;102688.25;;;4.81
24714;BMP280;12820;51.580;5.010;2023-02-15T04:40:50;102694.78;;;4.78
24714;BMP280;12820;51.580;5.010;2023-02-15T04:45:53;102696.41;;;4.77
24714;BMP280;12820;51.580;5.010;2023-02-15T04:50:55;102697.09;;;4.73
24714;BMP280;12820;51.580;5.010;2023-02-15T04:55:57;102684.53;;;4.70
24714;BMP280;12820;51.580;5.010;2023-02-15T05:00:59;102682.78;;;4.68
24714;BMP280;12820;51.580;5.010;2023-02-15T05:06:02;102685.97;;;4.65
24714;BMP280;12820;51.580;5.010;2023-02-15T05:11:05;102684.25;;;4.63
24714;BMP280;12820;51.580;5.010;2023-02-15T05:16:07;102674.97;;;4.59
24714;BMP280;12820;51.580;5.010;2023-02-15T05:21:10;102680.66;;;4.57
24714;BMP280;12820;51.580;5.010;2023-02-15T05:26:16;102678.06;;;4.54
24714;BMP280;12820;51.580;5.010;2023-02-15T05:31:38;102677.16;;;4.52
24714;BMP280;12820;51.580;5.010;2023-02-15T05:36:40;102675.41;;;4.49
24714;BMP280;12820;51.580;5.010;2023-02-15T05:41:42;102676.97;;;4.47
24714;BMP280;12820;51.580;5.010;2023-02-15T05:46:44;102667.75;;;4.45
24714;BMP280;12820;51.580;5.010;2023-02-15T05:51:46;102671.03;;;4.44
24714;BMP280;12820;51.580;5.010;2023-02-15T05:56:48;102666.84;;;4.43
24714;BMP280;12820;51.580;5.010;2023-02-15T06:01:51;102663.44;;;4.41
24714;BMP280;12820;51.580;5.010;2023-02-15T06:06:53;102657.56;;;4.39
24714;BMP280;12820;51.580;5.010;2023-02-15T06:11:55;102670.78;;;4.38
24714;BMP280;12820;51.580;5.010;2023-02-15T06:16:57;102674.88;;;4.36
24714;BMP280;12820;51.580;5.010;2023-02-15T06:21:59;102671.53;;;4.36
24714;BMP280;12820;51.580;5.010;2023-02-15T06:27:01;102667.28;;;4.33
24714;BMP280;12820;51.580;5.010;2023-02-15T06:32:04;102663.06;;;4.32
24714;BMP280;12820;51.580;5.010;2023-02-15T06:37:06;102662.19;;;4.30
24714;BMP280;12820;51.580;5.010;2023-02-15T06:42:09;102653.88;;;4.30
24714;BMP280;12820;51.580;5.010;2023-02-15T06:47:12;102647.97;;;4.28
24714;BMP280;12820;51.580;5.010;2023-02-15T06:52:16;102648.75;;;4.27
24714;BMP280;12820;51.580;5.010;2023-02-15T06:57:42;102646.22;;;4.25
24714;BMP280;12820;51.580;5.010;2023-02-15T07:02:45;102639.59;;;4.26
24714;BMP280;12820;51.580;5.010;2023-02-15T07:08:22;102641.34;;;4.28
24714;BMP280;12820;51.580;5.010;2023-02-15T07:13:35;102639.00;;;4.31
24714;BMP280;12820;51.580;5.010;2023-02-15T07:18:37;102636.56;;;4.33
24714;BMP280;12820;51.580;5.010;2023-02-15T07:23:40;102633.38;;;4.37
24714;BMP280;12820;51.580;5.010;2023-02-15T07:28:42;102636.00;;;4.40
24714;BMP280;12820;51.580;5.010;2023-02-15T07:33:44;102634.47;;;4.43
24714;BMP280;12820;51.580;5.010;2023-02-15T07:38:46;102629.59;;;4.46
24714;BMP280;12820;51.580;5.010;2023-02-15T07:43:48;102636.53;;;4.53
24714;BMP280;12820;51.580;5.010;2023-02-15T07:48:50;102641.75;;;4.59
24714;BMP280;12820;51.580;5.010;2023-02-15T07:53:53;102626.22;;;4.65
24714;BMP280;12820;51.580;5.010;2023-02-15T07:58:55;102630.75;;;4.75
24714;BMP280;12820;51.580;5.010;2023-02-15T08:03:59;102627.78;;;4.85
24714;BMP280;12820;51.580;5.010;2023-02-15T08:09:06;102625.69;;;4.95
24714;BMP280;12820;51.580;5.010;2023-02-15T08:14:14;102622.88;;;5.09
24714;BMP280;12820;51.580;5.010;2023-02-15T08:19:27;102615.00;;;5.20
24714;BMP280;12820;51.580;5.010;2023-02-15T08:24:32;102613.84;;;5.34
24714;BMP280;12820;51.580;5.010;2023-02-15T08:29:36;102620.88;;;5.45
24714;BMP280;12820;51.580;5.010;2023-02-15T08:34:41;102617.09;;;5.56
24714;BMP280;12820;51.580;5.010;2023-02-15T08:39:43;102611.69;;;5.67
24714;BMP280;12820;51.580;5.010;2023-02-15T08:44:46;102606.28;;;5.78
24714;BMP280;12820;51.580;5.010;2023-02-15T08:49:51;102604.94;;;5.89
24714;BMP280;12820;51.580;5.010;2023-02-15T08:54:53;102605.34;;;6.01
24714;BMP280;12820;51.580;5.010;2023-02-15T08:59:55;102594.91;;;6.12
24714;BMP280;12820;51.580;5.010;2023-02-15T09:04:57;102586.13;;;6.24
24714;BMP280;12820;51.580;5.010;2023-02-15T09:10:00;102579.84;;;6.36
24714;BMP280;12820;51.580;5.010;2023-02-15T09:15:02;102577.75;;;6.49
24714;BMP280;12820;51.580;5.010;2023-02-15T09:20:05;102579.06;;;6.66
24714;BMP280;12820;51.580;5.010;2023-02-15T09:25:07;102577.78;;;6.78
24714;BMP280;12820;51.580;5.010;2023-02-15T09:30:09;102581.53;;;6.93
24714;BMP280;12820;51.580;5.010;2023-02-15T09:35:12;102586.16;;;7.09
24714;BMP280;12820;51.580;5.010;2023-02-15T09:40:16;102586.63;;;7.26
24714;BMP280;12820;51.580;5.010;2023-02-15T09:50:57;102585.97;;;7.63
24714;BMP280;12820;51.580;5.010;2023-02-15T10:29:18;102584.72;;;9.31
24714;BMP280;12820;51.580;5.010;2023-02-15T10:39:09;102585.03;;;9.93
24714;BMP280;12820;51.580;5.010;2023-02-15T10:54:55;102568.78;;;10.88
24714;BMP280;12820;51.580;5.010;2023-02-15T11:05:26;102560.94;;;11.34
24714;BMP280;12820;51.580;5.010;2023-02-15T11:10:34;102554.47;;;11.56
24714;BMP280;12820;51.580;5.010;2023-02-15T11:15:39;102550.44;;;11.76
24714;BMP280;12820;51.580;5.010;2023-02-15T11:20:44;102545.56;;;11.98
24714;BMP280;12820;51.580;5.010;2023-02-15T11:25:52;102544.88;;;12.25
24714;BMP280;12820;51.580;5.010;2023-02-15T11:30:55;102521.59;;;12.64
24714;BMP280;12820;51.580;5.010;2023-02-15T11:41:09;102516.59;;;14.55
24714;BMP280;12820;51.580;5.010;2023-02-15T11:46:12;102503.44;;;15.38
24714;BMP280;12820;51.580;5.010;2023-02-15T11:51:16;102491.13;;;16.69
24714;BMP280;12820;51.580;5.010;2023-02-15T11:56:20;102487.41;;;17.97
24714;BMP280;12820;51.580;5.010;2023-02-15T12:01:24;102470.22;;;18.88
24714;BMP280;12820;51.580;5.010;2023-02-15T12:06:42;102456.03;;;19.13
24714;BMP280;12820;51.580;5.010;2023-02-15T12:11:45;102445.16;;;18.71
24714;BMP280;12820;51.580;5.010;2023-02-15T12:16:48;102450.56;;;18.93
24714;BMP280;12820;51.580;5.010;2023-02-15T12:21:51;102452.72;;;18.74
24714;BMP280;12820;51.580;5.010;2023-02-15T12:32:02;102442.38;;;18.00
24714;BMP280;12820;51.580;5.010;2023-02-15T12:37:09;102434.00;;;17.95
24714;BMP280;12820;51.580;5.010;2023-02-15T12:42:15;102435.44;;;18.08
24714;BMP280;12820;51.580;5.010;2023-02-15T12:47:19;102432.50;;;17.85
24714;BMP280;12820;51.580;5.010;2023-02-15T13:02:48;102412.81;;;18.34
24714;BMP280;12820;51.580;5.010;2023-02-15T13:07:50;102397.25;;;18.86
24714;BMP280;12820;51.580;5.010;2023-02-15T13:12:53;102403.25;;;19.16
24714;BMP280;12820;51.580;5.010;2023-02-15T13:17:57;102392.66;;;19.32
24714;BMP280;12820;51.580;5.010;2023-02-15T13:23:03;102398.97;;;19.51
24714;BMP280;12820;51.580;5.010;2023-02-15T13:28:06;102395.09;;;19.69
24714;BMP280;12820;51.580;5.010;2023-02-15T13:43:20;102404.56;;;20.80
24714;BMP280;12820;51.580;5.010;2023-02-15T13:48:34;102391.22;;;21.96
24714;BMP280;12820;51.580;5.010;2023-02-15T14:26:00;102378.09;;;20.28
24714;BMP280;12820;51.580;5.010;2023-02-15T14:31:03;102377.97;;;20.02
24714;BMP280;12820;51.580;5.010;2023-02-15T14:36:07;102381.19;;;20.10
24714;BMP280;12820;51.580;5.010;2023-02-15T14:41:15;102382.00;;;20.11
24714;BMP280;12820;51.580;5.010;2023-02-15T15:12:50;102361.19;;;20.24
24714;BMP280;12820;51.580;5.010;2023-02-15T15:33:45;102364.53;;;18.68
24714;BMP280;12820;51.580;5.010;2023-02-15T15:44:20;102349.31;;;17.89
24714;BMP280;12820;51.580;5.010;2023-02-15T15:49:31;102357.56;;;17.55
24714;BMP280;12820;51.580;5.010;2023-02-15T15:54:34;102354.72;;;17.27
24714;BMP280;12820;51.580;5.010;2023-02-15T15:59:43;102345.03;;;17.01
24714;BMP280;12820;51.580;5.010;2023-02-15T16:04:45;102351.38;;;16.73
24714;BMP280;12820;51.580;5.010;2023-02-15T16:10:03;102359.44;;;16.44
24714;BMP280;12820;51.580;5.010;2023-02-15T16:15:13;102354.75;;;16.15
24714;BMP280;12820;51.580;5.010;2023-02-15T16:20:16;102366.06;;;15.88
24714;BMP280;12820;51.580;5.010;2023-02-15T16:30:30;102366.59;;;15.38
24714;BMP280;12820;51.580;5.010;2023-02-15T16:35:32;102371.91;;;15.15
24714;BMP280;12820;51.580;5.010;2023-02-15T16:40:40;102369.56;;;14.92
24714;BMP280;12820;51.580;5.010;2023-02-15T16:45:43;102365.50;;;14.67
24714;BMP280;12820;51.580;5.010;2023-02-15T16:50:49;102358.91;;;14.43
24714;BMP280;12820;51.580;5.010;2023-02-15T16:55:53;102353.16;;;14.18
24714;BMP280;12820;51.580;5.010;2023-02-15T17:00:57;102358.31;;;13.91
24714;BMP280;12820;51.580;5.010;2023-02-15T17:06:00;102350.78;;;13.68
24714;BMP280;12820;51.580;5.010;2023-02-15T17:16:24;102366.03;;;13.24
24714;BMP280;12820;51.580;5.010;2023-02-15T17:21:30;102365.19;;;13.02
24714;BMP280;12820;51.580;5.010;2023-02-15T17:26:34;102362.69;;;12.84
24714;BMP280;12820;51.580;5.010;2023-02-15T17:31:36;102367.69;;;12.67
24714;BMP280;12820;51.580;5.010;2023-02-15T17:36:38;102370.16;;;12.52
24714;BMP280;12820;51.580;5.010;2023-02-15T17:41:58;102372.66;;;12.36
24714;BMP280;12820;51.580;5.010;2023-02-15T17:47:00;102376.78;;;12.24
24714;BMP280;12820;51.580;5.010;2023-02-15T17:52:02;102383.47;;;12.10
24714;BMP280;12820;51.580;5.010;2023-02-15T17:57:08;102386.78;;;11.98
24714;BMP280;12820;51.580;5.010;2023-02-15T18:02:12;102392.59;;;11.87
24714;BMP280;12820;51.580;5.010;2023-02-15T18:07:33;102397.56;;;11.73
24714;BMP280;12820;51.580;5.010;2023-02-15T18:12:53;102391.63;;;11.63
24714;BMP280;12820;51.580;5.010;2023-02-15T18:17:55;102386.53;;;11.51
24714;BMP280;12820;51.580;5.010;2023-02-15T18:22:58;102396.53;;;11.42
24714;BMP280;12820;51.580;5.010;2023-02-15T18:27:59;102390.59;;;11.35
24714;BMP280;12820;51.580;5.010;2023-02-15T18:33:01;102393.91;;;11.28
24714;BMP280;12820;51.580;5.010;2023-02-15T18:38:04;102400.53;;;11.20
24714;BMP280;12820;51.580;5.010;2023-02-15T18:43:08;102389.59;;;11.14
24714;BMP280;12820;51.580;5.010;2023-02-15T18:48:10;102406.31;;;11.09
24714;BMP280;12820;51.580;5.010;2023-02-15T18:53:17;102407.94;;;11.05
24714;BMP280;12820;51.580;5.010;2023-02-15T18:58:21;102407.91;;;11.01
24714;BMP280;12820;51.580;5.010;2023-02-15T19:03:24;102409.56;;;10.98
24714;BMP280;12820;51.580;5.010;2023-02-15T19:08:27;102411.19;;;10.93
24714;BMP280;12820;51.580;5.010;2023-02-15T19:13:29;102408.63;;;10.87
24714;BMP280;12820;51.580;5.010;2023-02-15T19:18:31;102405.22;;;10.82
24714;BMP280;12820;51.580;5.010;2023-02-15T19:23:33;102421.94;;;10.77
24714;BMP280;12820;51.580;5.010;2023-02-15T19:28:36;102420.19;;;10.70
24714;BMP280;12820;51.580;5.010;2023-02-15T19:33:38;102416.78;;;10.65
24714;BMP280;12820;51.580;5.010;2023-02-15T19:38:41;102408.34;;;10.61
24714;BMP280;12820;51.580;5.010;2023-02-15T19:43:45;102415.81;;;10.53
24714;BMP280;12820;51.580;5.010;2023-02-15T19:48:53;102406.56;;;10.48
24714;BMP280;12820;51.580;5.010;2023-02-15T19:53:55;102401.47;;;10.42
24714;BMP280;12820;51.580;5.010;2023-02-15T19:58:58;102401.38;;;10.36
24714;BMP280;12820;51.580;5.010;2023-02-15T20:04:00;102404.69;;;10.32
24714;BMP280;12820;51.580;5.010;2023-02-15T20:09:03;102395.38;;;10.26
24714;BMP280;12820;51.580;5.010;2023-02-15T20:14:08;102404.53;;;10.21
24714;BMP280;12820;51.580;5.010;2023-02-15T20:19:11;102418.72;;;10.16
24714;BMP280;12820;51.580;5.010;2023-02-15T20:24:16;102420.31;;;10.11
24714;BMP280;12820;51.580;5.010;2023-02-15T20:29:19;102414.41;;;10.06
24714;BMP280;12820;51.580;5.010;2023-02-15T20:34:21;102425.25;;;10.02
24714;BMP280;12820;51.580;5.010;2023-02-15T20:39:23;102409.25;;;9.97
24714;BMP280;12820;51.580;5.010;2023-02-15T20:44:26;102405.84;;;9.91
24714;BMP280;12820;51.580;5.010;2023-02-15T20:49:29;102403.25;;;9.87
24714;BMP280;12820;51.580;5.010;2023-02-15T20:54:32;102399.03;;;9.83
24714;BMP280;12820;51.580;5.010;2023-02-15T20:59:34;102398.13;;;9.77
24714;BMP280;12820;51.580;5.010;2023-02-15T21:04:37;102405.56;;;9.72
24714;BMP280;12820;51.580;5.010;2023-02-15T21:09:38;102412.19;;;9.67
24714;BMP280;12820;51.580;5.010;2023-02-15T21:14:40;102403.75;;;9.62
24714;BMP280;12820;51.580;5.010;2023-02-15T21:19:43;102410.34;;;9.59
24714;BMP280;12820;51.580;5.010;2023-02-15T21:24:48;102405.28;;;9.55
24714;BMP280;12820;51.580;5.010;2023-02-15T21:29:51;102408.56;;;9.51
24714;BMP280;12820;51.580;5.010;2023-02-15T21:34:53;102400.13;;;9.46
24714;BMP280;12820;51.580;5.010;2023-02-15T21:39:55;102405.13;;;9.43
24714;BMP280;12820;51.580;5.010;2023-02-15T21:44:57;102414.22;;;9.40
24714;BMP280;12820;51.580;5.010;2023-02-15T21:50:19;102413.31;;;9.35
24714;BMP280;12820;51.580;5.010;2023-02-15T21:56:01;102411.59;;;9.31
24714;BMP280;12820;51.580;5.010;2023-02-15T22:01:03;102413.25;;;9.29
24714;BMP280;12820;51.580;5.010;2023-02-15T22:06:08;102412.34;;;9.25
24714;BMP280;12820;51.580;5.010;2023-02-15T22:11:13;102405.63;;;9.23
24714;BMP280;12820;51.580;5.010;2023-02-15T22:16:19;102401.38;;;9.21
24714;BMP280;12820;51.580;5.010;2023-02-15T22:21:22;102399.66;;;9.17
24714;BMP280;12820;51.580;5.010;2023-02-15T22:26:27;102403.81;;;9.15
24714;BMP280;12820;51.580;5.010;2023-02-15T22:31:29;102413.81;;;9.13
24714;BMP280;12820;51.580;5.010;2023-02-15T22:36:31;102410.44;;;9.10
24714;BMP280;12820;51.580;5.010;2023-02-15T22:41:33;102414.56;;;9.08
24714;BMP280;12820;51.580;5.010;2023-02-15T22:46:35;102404.47;;;9.04
24714;BMP280;12820;51.580;5.010;2023-02-15T22:51:39;102408.59;;;9.02
24714;BMP280;12820;51.580;5.010;2023-02-15T22:56:43;102404.38;;;8.99
24714;BMP280;12820;51.580;5.010;2023-02-15T23:01:45;102406.00;;;8.97
24714;BMP280;12820;51.580;5.010;2023-02-15T23:06:48;102407.66;;;8.95
24714;BMP280;12820;51.580;5.010;2023-02-15T23:11:50;102390.88;;;8.91
24714;BMP280;12820;51.580;5.010;2023-02-15T23:16:52;102398.38;;;8.90
24714;BMP280;12820;51.580;5.010;2023-02-15T23:21:55;102400.00;;;8.88
24714;BMP280;12820;51.580;5.010;2023-02-15T23:26:57;102408.34;;;8.86
24714;BMP280;12820;51.580;5.010;2023-02-15T23:32:19;102403.25;;;8.83
24714;BMP280;12820;51.580;5.010;2023-02-15T23:37:22;102399.88;;;8.81
24714;BMP280;12820;51.580;5.010;2023-02-15T23:42:28;102407.34;;;8.78
24714;BMP280;12820;51.580;5.010;2023-02-15T23:47:31;102403.13;;;8.75
24714;BMP280;12820;51.580;5.010;2023-02-15T23:52:53;102406.41;;;8.73
24714;BMP280;12820;51.580;5.010;2023-02-15T23:57:55;102405.47;;;8.68
